Tuesday, January 15, 2019, 7:05 PM EST
Back to Local

KLOM, Philadelphia, Wings Field Airport

Location: Blue Bell, PA, United States Lat: 40.138
Local Time: 7:05 PM EST ( 0:05 GMT) Lon: -75.265
Time Zone: US/Eastern Elev: 301 ft

Show me the last for .
Show Coded

Time T Td Feel RH Dir Speed Gust Alt SLP Vis Weather Sky Remarks
2019-01-15 18:35 30 19 - 63 - Calm - 30.17 - 10 CLR None
2019-01-15 18:15 30 19 - 63 - Calm - 30.17 - 10 CLR None
2019-01-15 17:55 30 19 - 63 - Calm - 30.16 - 10 CLR None
2019-01-15 17:35 32 18 - 54 - Calm - 30.16 - 10 CLR None
2019-01-15 17:15 32 18 - 54 - Calm - 30.15 - 10 CLR None
2019-01-15 16:55 32 18 29 54 290° 3 - 30.15 - 10 CLR None
2019-01-15 16:35 32 18 27 54 280° 5 - 30.15 - 10 CLR None
2019-01-15 16:15 32 18 26 54 270° 7 - 30.15 - 10 CLR None
2019-01-15 15:55 34 18 29 50 290° 6 - 30.15 - 10 CLR None
2019-01-15 15:35 34 18 30 50 280° 5 - 30.15 - 10 CLR None
2019-01-15 15:15 34 18 30 50 280° 5 - 30.15 - 10 CLR None
2019-01-15 14:55 34 18 30 50 300° 5 - 30.15 - 10 CLR None
2019-01-15 14:35 34 18 31 50 320° 3 - 30.14 - 10 CLR None
2019-01-15 14:15 34 18 29 50 320° 6 - 30.14 - 10 CLR None
2019-01-15 13:55 34 18 30 50 280° 5 - 30.14 - 10 CLR None
2019-01-15 13:35 34 18 31 50 290° 3 - 30.14 - 10 CLR None
2019-01-15 13:15 34 18 29 50 330° 6 - 30.15 - 10 CLR None
2019-01-15 12:55 34 18 29 50 290° 6 - 30.15 - 10 CLR None
2019-01-15 12:35 32 18 26 54 320° 6 - 30.17 - 10 CLR None
2019-01-15 12:15 32 18 25 54 320° 8 - 30.17 - 10 CLR None
2019-01-15 11:55 32 18 26 54 270° 6 - 30.18 - 10 CLR None
2019-01-15 11:35 32 18 - 54 - Calm - 30.19 - 10 CLR None
2019-01-15 11:15 32 18 29 54 360° 3 - 30.20 - 10 CLR None
2019-01-15 10:55 32 18 27 54 330° 5 - 30.21 - 10 CLR None
2019-01-15 10:35 30 18 23 58 290° 8 - 30.21 - 10 CLR None
2019-01-15 10:15 30 18 24 58 330° 6 - 30.21 - 10 CLR None
2019-01-15 09:55 30 18 24 58 320° 6 - 30.21 - 10 CLR None
2019-01-15 09:35 28 16 21 58 340° 7 - 30.21 - 10 CLR None
2019-01-15 09:15 28 14 20 54 320° 8 - 30.20 - 10 CLR None
2019-01-15 08:55 28 14 22 54 320° 6 - 30.19 - 10 CLR None
2019-01-15 08:35 28 14 25 54 330° 3 - 30.19 - 10 CLR None
2019-01-15 08:15 27 14 21 58 310° 5 - 30.18 - 10 CLR None
2019-01-15 07:55 27 14 21 58 300° 5 - 30.17 - 10 CLR None
2019-01-15 07:35 23 14 - 67 - Calm - 30.16 - 10 CLR None
2019-01-15 07:15 21 16 - 79 - Calm - 30.16 - 10 CLR None
2019-01-15 06:55 18 16 - 92 - Calm - 30.16 - 10 CLR None
2019-01-15 06:35 18 16 - 92 - Calm - 30.16 - 10 CLR None
2019-01-15 06:15 18 16 - 92 - Calm - 30.16 - 10 CLR None
2019-01-15 05:55 19 16 - 85 - Calm - 30.15 - 10 CLR None
2019-01-15 05:35 19 14 - 79 - Calm - 30.14 - 10 CLR None
2019-01-15 05:15 18 16 - 92 - Calm - 30.14 - 10 CLR None
2019-01-15 04:55 19 16 - 85 - Calm - 30.14 - 10 CLR None
2019-01-15 04:35 18 16 - 92 - Calm - 30.14 - 10 CLR None
2019-01-15 04:15 18 16 - 92 - Calm - 30.14 - 10 CLR None
2019-01-15 03:55 18 16 - 92 - Calm - 30.14 - 10 CLR None
2019-01-15 03:35 18 16 - 92 - Calm - 30.15 - 10 CLR None
2019-01-15 03:15 18 18 - 100 - Calm - 30.15 - 10 CLR None
2019-01-15 02:55 19 16 - 85 - Calm - 30.15 - 10 CLR None
2019-01-15 02:35 19 16 - 85 - Calm - 30.15 - 10 CLR None
2019-01-15 02:15 19 16 - 85 - Calm - 30.15 - 10 CLR None
2019-01-15 01:55 19 16 - 85 - Calm - 30.15 - 10 CLR None
2019-01-15 01:35 21 18 - 85 - Calm - 30.15 - 10 CLR None
2019-01-15 01:15 21 18 - 85 - Calm - 30.15 - 10 CLR None
2019-01-15 00:55 19 16 - 85 - Calm - 30.15 - 10 CLR None
2019-01-15 00:35 19 16 - 85 - Calm - 30.16 - 10 CLR None
2019-01-15 00:15 19 16 - 85 - Calm - 30.16 - 10 CLR None
2019-01-14 23:55 21 16 - 79 - Calm - 30.16 - 10 CLR None
2019-01-14 23:35 23 14 - 67 - Calm - 30.17 - 10 CLR None
2019-01-14 23:15 21 16 - 79 - Calm - 30.17 - 10 CLR None
2019-01-14 22:55 23 16 - 73 - Calm - 30.18 - 10 CLR None
2019-01-14 22:35 23 16 - 73 - Calm - 30.17 - 10 CLR None
2019-01-14 22:15 25 14 - 62 - Calm - 30.17 - 10 CLR None
2019-01-14 21:55 27 14 - 58 - Calm - 30.17 - 10 CLR None
2019-01-14 21:35 27 14 23 58 280° 3 - 30.17 - 10 CLR None
2019-01-14 21:15 27 14 - 58 - Calm - 30.17 - 10 CLR None
2019-01-14 20:55 27 14 - 58 - Calm - 30.17 - 10 CLR None
2019-01-14 20:35 27 14 - 58 - Calm - 30.17 - 10 CLR None
2019-01-14 20:15 27 14 - 58 - Calm - 30.17 - 10 CLR None
2019-01-14 19:55 27 14 - 58 - Calm - 30.17 - 10 CLR None
2019-01-14 19:35 27 14 - 58 - Calm - 30.17 - 10 CLR None
2019-01-14 19:15 23 16 - 73 - Calm - 30.18 - 10 CLR None

Support USWX by starting your Amazon purchase here.